sensor_id;sensor_type;location;lat;lon;timestamp;pressure;altitude;pressure_sealevel;temperature;humidity
64078;BME280;51039;49.696;10.808;2023-01-31T00:01:05;98922.00;;;1.10;97.00
64078;BME280;51039;49.696;10.808;2023-01-31T00:03:32;98922.50;;;1.04;97.20
64078;BME280;51039;49.696;10.808;2023-01-31T00:05:57;98916.84;;;0.99;97.12
64078;BME280;51039;49.696;10.808;2023-01-31T00:08:22;98920.09;;;0.91;97.29
64078;BME280;51039;49.696;10.808;2023-01-31T00:10:48;98921.19;;;0.89;97.79
64078;BME280;51039;49.696;10.808;2023-01-31T00:13:13;98924.28;;;0.83;97.88
64078;BME280;51039;49.696;10.808;2023-01-31T00:15:38;98915.25;;;0.87;97.93
64078;BME280;51039;49.696;10.808;2023-01-31T00:18:04;98921.19;;;0.89;97.79
64078;BME280;51039;49.696;10.808;2023-01-31T00:20:29;98936.13;;;0.87;97.69
64078;BME280;51039;49.696;10.808;2023-01-31T00:22:54;98934.97;;;0.80;98.15
64078;BME280;51039;49.696;10.808;2023-01-31T00:25:20;98921.13;;;0.79;98.14
64078;BME280;51039;49.696;10.808;2023-01-31T00:27:45;98935.22;;;0.76;98.20
64078;BME280;51039;49.696;10.808;2023-01-31T00:30:10;98922.88;;;0.78;98.60
64078;BME280;51039;49.696;10.808;2023-01-31T00:32:36;98935.22;;;0.76;98.47
64078;BME280;51039;49.696;10.808;2023-01-31T00:35:01;98934.28;;;0.77;98.43
64078;BME280;51039;49.696;10.808;2023-01-31T00:37:27;98941.00;;;0.80;98.67
64078;BME280;51039;49.696;10.808;2023-01-31T00:39:52;98939.50;;;0.77;98.31
64078;BME280;51039;49.696;10.808;2023-01-31T00:42:17;98951.69;;;0.77;98.45
64078;BME280;51039;49.696;10.808;2023-01-31T00:44:42;98946.97;;;0.71;98.71
64078;BME280;51039;49.696;10.808;2023-01-31T00:47:08;98949.00;;;0.67;98.86
64078;BME280;51039;49.696;10.808;2023-01-31T00:49:33;98943.22;;;0.64;98.64
64078;BME280;51039;49.696;10.808;2023-01-31T00:51:58;98946.28;;;0.69;98.62
64078;BME280;51039;49.696;10.808;2023-01-31T00:54:24;98945.34;;;0.70;98.79
64078;BME280;51039;49.696;10.808;2023-01-31T00:56:49;98944.75;;;0.66;98.66
64078;BME280;51039;49.696;10.808;2023-01-31T00:59:14;98948.19;;;0.67;98.74
64078;BME280;51039;49.696;10.808;2023-01-31T01:01:40;98944.56;;;0.58;98.39
64078;BME280;51039;49.696;10.808;2023-01-31T01:04:05;98946.31;;;0.57;98.91
64078;BME280;51039;49.696;10.808;2023-01-31T01:06:31;98944.78;;;0.55;99.00
64078;BME280;51039;49.696;10.808;2023-01-31T01:08:57;98939.69;;;0.53;98.99
64078;BME280;51039;49.696;10.808;2023-01-31T01:11:28;98940.78;;;0.51;98.94
64078;BME280;51039;49.696;10.808;2023-01-31T01:13:55;98941.47;;;0.53;99.23
64078;BME280;51039;49.696;10.808;2023-01-31T01:16:22;98938.19;;;0.51;98.99
64078;BME280;51039;49.696;10.808;2023-01-31T01:18:49;98935.19;;;0.55;99.12
64078;BME280;51039;49.696;10.808;2023-01-31T01:21:16;98936.66;;;0.48;99.10
64078;BME280;51039;49.696;10.808;2023-01-31T01:23:44;98952.66;;;0.44;99.17
64078;BME280;51039;49.696;10.808;2023-01-31T01:26:14;98947.69;;;0.41;99.51
64078;BME280;51039;49.696;10.808;2023-01-31T01:28:47;98950.31;;;0.41;99.46
64078;BME280;51039;49.696;10.808;2023-01-31T01:31:13;98959.44;;;0.35;99.66
64078;BME280;51039;49.696;10.808;2023-01-31T01:33:42;98965.69;;;0.32;99.47
64078;BME280;51039;49.696;10.808;2023-01-31T01:36:09;98967.38;;;0.33;99.77
64078;BME280;51039;49.696;10.808;2023-01-31T01:38:41;98964.78;;;0.33;99.94
64078;BME280;51039;49.696;10.808;2023-01-31T01:41:07;98952.31;;;0.37;99.50
64078;BME280;51039;49.696;10.808;2023-01-31T01:43:38;98948.75;;;0.38;99.58
64078;BME280;51039;49.696;10.808;2023-01-31T01:46:06;98960.00;;;0.38;99.95
64078;BME280;51039;49.696;10.808;2023-01-31T01:48:35;98964.16;;;0.41;99.70
64078;BME280;51039;49.696;10.808;2023-01-31T01:51:01;98964.28;;;0.39;99.71
64078;BME280;51039;49.696;10.808;2023-01-31T01:53:29;98969.72;;;0.36;99.69
64078;BME280;51039;49.696;10.808;2023-01-31T01:56:00;98976.22;;;0.42;99.74
64078;BME280;51039;49.696;10.808;2023-01-31T01:58:31;98984.75;;;0.44;99.55
64078;BME280;51039;49.696;10.808;2023-01-31T02:01:03;98984.75;;;0.44;99.49
64078;BME280;51039;49.696;10.808;2023-01-31T02:03:30;98989.84;;;0.46;99.33
64078;BME280;51039;49.696;10.808;2023-01-31T02:05:57;98978.47;;;0.47;99.09
64078;BME280;51039;49.696;10.808;2023-01-31T02:08:27;98971.72;;;0.44;99.23
64078;BME280;51039;49.696;10.808;2023-01-31T02:10:58;98973.38;;;0.45;98.97
64078;BME280;51039;49.696;10.808;2023-01-31T02:13:28;98968.28;;;0.44;99.26
64078;BME280;51039;49.696;10.808;2023-01-31T02:15:55;98971.84;;;0.43;99.04
64078;BME280;51039;49.696;10.808;2023-01-31T02:18:21;98980.63;;;0.42;98.84
64078;BME280;51039;49.696;10.808;2023-01-31T02:21:24;98979.69;;;0.43;99.11
64078;BME280;51039;49.696;10.808;2023-01-31T02:40:49;98986.31;;;0.35;99.57
64078;BME280;51039;49.696;10.808;2023-01-31T02:45:57;99007.66;;;0.29;99.81
64078;BME280;51039;49.696;10.808;2023-01-31T02:48:39;99003.25;;;0.30;99.94
64078;BME280;51039;49.696;10.808;2023-01-31T02:51:22;98997.47;;;0.26;100.00
64078;BME280;51039;49.696;10.808;2023-01-31T02:53:55;98996.66;;;0.26;100.00
64078;BME280;51039;49.696;10.808;2023-01-31T02:56:30;98999.13;;;0.27;99.92
64078;BME280;51039;49.696;10.808;2023-01-31T02:59:12;99016.06;;;0.22;100.00
64078;BME280;51039;49.696;10.808;2023-01-31T03:01:45;99008.72;;;0.27;100.00
64078;BME280;51039;49.696;10.808;2023-01-31T03:04:14;99014.50;;;0.30;100.00
64078;BME280;51039;49.696;10.808;2023-01-31T03:09:12;99017.94;;;0.31;99.99
64078;BME280;51039;49.696;10.808;2023-01-31T03:12:16;99029.44;;;0.28;99.94
64078;BME280;51039;49.696;10.808;2023-01-31T03:17:56;99036.56;;;0.26;100.00
64078;BME280;51039;49.696;10.808;2023-01-31T03:20:34;99043.38;;;0.38;100.00
64078;BME280;51039;49.696;10.808;2023-01-31T03:23:09;99047.06;;;0.47;99.83
64078;BME280;51039;49.696;10.808;2023-01-31T03:25:48;99052.59;;;0.54;99.46
64078;BME280;51039;49.696;10.808;2023-01-31T03:28:16;99056.50;;;0.59;99.55
64078;BME280;51039;49.696;10.808;2023-01-31T03:30:54;99059.25;;;0.58;99.27
64078;BME280;51039;49.696;10.808;2023-01-31T03:33:26;99048.69;;;0.59;99.40
64078;BME280;51039;49.696;10.808;2023-01-31T03:35:58;99054.03;;;0.58;99.48
64078;BME280;51039;49.696;10.808;2023-01-31T03:38:32;99049.75;;;0.57;99.09
64078;BME280;51039;49.696;10.808;2023-01-31T03:41:13;99050.00;;;0.54;99.52
64078;BME280;51039;49.696;10.808;2023-01-31T03:43:49;99060.91;;;0.48;99.28
64078;BME280;51039;49.696;10.808;2023-01-31T03:46:20;99066.25;;;0.46;99.44
64078;BME280;51039;49.696;10.808;2023-01-31T03:48:52;99063.41;;;0.49;99.36
64078;BME280;51039;49.696;10.808;2023-01-31T03:51:21;99076.66;;;0.46;99.13
64078;BME280;51039;49.696;10.808;2023-01-31T03:53:52;99073.63;;;0.41;99.35
64078;BME280;51039;49.696;10.808;2023-01-31T03:58:54;99069.00;;;0.45;99.57
64078;BME280;51039;49.696;10.808;2023-01-31T04:01:24;99072.78;;;0.41;99.43
64078;BME280;51039;49.696;10.808;2023-01-31T04:04:03;99088.28;;;0.42;99.69
64078;BME280;51039;49.696;10.808;2023-01-31T04:06:34;99081.31;;;0.43;99.54
64078;BME280;51039;49.696;10.808;2023-01-31T04:08:59;99088.88;;;0.46;99.70
64078;BME280;51039;49.696;10.808;2023-01-31T04:11:25;99096.09;;;0.53;99.53
64078;BME280;51039;49.696;10.808;2023-01-31T04:13:51;99099.19;;;0.58;99.37
64078;BME280;51039;49.696;10.808;2023-01-31T04:16:16;99100.47;;;0.64;99.12
64078;BME280;51039;49.696;10.808;2023-01-31T04:18:42;99108.75;;;0.69;99.08
64078;BME280;51039;49.696;10.808;2023-01-31T04:21:07;99105.31;;;0.69;99.10
64078;BME280;51039;49.696;10.808;2023-01-31T04:23:33;99100.00;;;0.70;98.95
64078;BME280;51039;49.696;10.808;2023-01-31T04:25:59;99111.81;;;0.74;98.88
64078;BME280;51039;49.696;10.808;2023-01-31T04:28:24;99098.44;;;0.79;98.98
64078;BME280;51039;49.696;10.808;2023-01-31T04:30:53;99102.56;;;0.82;98.94
64078;BME280;51039;49.696;10.808;2023-01-31T04:33:20;99099.00;;;0.83;98.92
64078;BME280;51039;49.696;10.808;2023-01-31T04:35:47;99096.66;;;0.80;98.95
64078;BME280;51039;49.696;10.808;2023-01-31T04:38:12;99087.16;;;0.78;98.99
64078;BME280;51039;49.696;10.808;2023-01-31T04:40:38;99083.16;;;0.74;98.55
64078;BME280;51039;49.696;10.808;2023-01-31T04:43:03;99084.13;;;0.73;98.54
64078;BME280;51039;49.696;10.808;2023-01-31T04:45:28;99081.63;;;0.72;98.68
64078;BME280;51039;49.696;10.808;2023-01-31T04:47:54;99073.91;;;0.70;98.72
64078;BME280;51039;49.696;10.808;2023-01-31T04:50:19;99082.44;;;0.72;99.02
64078;BME280;51039;49.696;10.808;2023-01-31T04:52:47;99080.66;;;0.73;98.79
64078;BME280;51039;49.696;10.808;2023-01-31T04:55:13;99085.63;;;0.76;99.06
64078;BME280;51039;49.696;10.808;2023-01-31T04:57:38;99086.34;;;0.78;99.15
64078;BME280;51039;49.696;10.808;2023-01-31T05:00:04;99079.00;;;0.83;98.85
64078;BME280;51039;49.696;10.808;2023-01-31T05:02:30;99078.38;;;0.91;99.03
64078;BME280;51039;49.696;10.808;2023-01-31T05:04:55;99095.44;;;0.95;98.60
64078;BME280;51039;49.696;10.808;2023-01-31T05:07:21;99091.72;;;0.97;98.81
64078;BME280;51039;49.696;10.808;2023-01-31T05:09:46;99085.44;;;1.00;98.66
64078;BME280;51039;49.696;10.808;2023-01-31T05:12:12;99087.91;;;1.02;98.45
64078;BME280;51039;49.696;10.808;2023-01-31T05:14:37;99087.09;;;1.01;98.34
64078;BME280;51039;49.696;10.808;2023-01-31T05:17:02;99085.06;;;1.05;98.66
64078;BME280;51039;49.696;10.808;2023-01-31T05:19:28;99083.41;;;1.04;98.46
64078;BME280;51039;49.696;10.808;2023-01-31T05:21:53;99085.91;;;1.05;98.20
64078;BME280;51039;49.696;10.808;2023-01-31T05:24:26;99075.47;;;1.05;98.31
64078;BME280;51039;49.696;10.808;2023-01-31T05:26:53;99079.84;;;1.05;98.33
64078;BME280;51039;49.696;10.808;2023-01-31T05:29:22;99068.47;;;1.06;98.16
64078;BME280;51039;49.696;10.808;2023-01-31T05:31:57;99074.53;;;1.06;98.12
64078;BME280;51039;49.696;10.808;2023-01-31T05:34:24;99076.16;;;1.07;97.78
64078;BME280;51039;49.696;10.808;2023-01-31T05:36:51;99075.94;;;1.10;97.87
64078;BME280;51039;49.696;10.808;2023-01-31T05:39:16;99076.16;;;1.07;98.15
64078;BME280;51039;49.696;10.808;2023-01-31T05:41:42;99080.56;;;1.07;97.94
64078;BME280;51039;49.696;10.808;2023-01-31T05:44:07;99074.63;;;1.05;98.12
64078;BME280;51039;49.696;10.808;2023-01-31T05:46:34;99074.28;;;0.98;97.79
64078;BME280;51039;49.696;10.808;2023-01-31T05:49:00;99079.06;;;0.93;97.85
64078;BME280;51039;49.696;10.808;2023-01-31T05:51:25;99079.06;;;0.93;97.87
64078;BME280;51039;49.696;10.808;2023-01-31T05:53:50;99075.06;;;0.89;97.77
64078;BME280;51039;49.696;10.808;2023-01-31T05:56:16;99082.53;;;0.82;98.02
64078;BME280;51039;49.696;10.808;2023-01-31T05:58:41;99091.31;;;0.81;98.25
64078;BME280;51039;49.696;10.808;2023-01-31T06:01:07;99082.28;;;0.85;97.93
64078;BME280;51039;49.696;10.808;2023-01-31T06:03:33;99084.44;;;0.80;97.73
64078;BME280;51039;49.696;10.808;2023-01-31T06:05:58;99094.66;;;0.72;98.26
64078;BME280;51039;49.696;10.808;2023-01-31T06:08:23;99094.19;;;0.67;98.54
64078;BME280;51039;49.696;10.808;2023-01-31T06:10:49;99097.16;;;0.62;98.33
64078;BME280;51039;49.696;10.808;2023-01-31T06:13:14;99093.25;;;0.56;98.66
64078;BME280;51039;49.696;10.808;2023-01-31T06:15:43;99089.34;;;0.51;98.77
64078;BME280;51039;49.696;10.808;2023-01-31T06:18:08;99091.16;;;0.50;98.86
64078;BME280;51039;49.696;10.808;2023-01-31T06:20:34;99093.66;;;0.41;98.63
64078;BME280;51039;49.696;10.808;2023-01-31T06:22:59;99089.72;;;0.35;99.16
64078;BME280;51039;49.696;10.808;2023-01-31T06:25:25;99099.91;;;0.27;98.85
64078;BME280;51039;49.696;10.808;2023-01-31T06:27:50;99098.03;;;0.17;99.07
64078;BME280;51039;49.696;10.808;2023-01-31T06:30:16;99098.16;;;0.16;99.43
64078;BME280;51039;49.696;10.808;2023-01-31T06:32:41;99100.97;;;0.13;99.29
64078;BME280;51039;49.696;10.808;2023-01-31T06:35:07;99105.69;;;0.08;99.50
64078;BME280;51039;49.696;10.808;2023-01-31T06:37:32;99107.13;;;0.01;99.59
64078;BME280;51039;49.696;10.808;2023-01-31T06:39:57;99113.97;;;0.02;99.63
64078;BME280;51039;49.696;10.808;2023-01-31T06:42:23;99103.94;;;0.08;99.76
64078;BME280;51039;49.696;10.808;2023-01-31T06:44:48;99092.69;;;0.08;100.00
64078;BME280;51039;49.696;10.808;2023-01-31T06:47:14;99104.53;;;0.12;100.00
64078;BME280;51039;49.696;10.808;2023-01-31T06:49:39;99108.91;;;0.11;99.58
64078;BME280;51039;49.696;10.808;2023-01-31T06:52:04;99113.06;;;0.03;99.47
64078;BME280;51039;49.696;10.808;2023-01-31T06:54:30;99109.75;;;0.01;99.75
64078;BME280;51039;49.696;10.808;2023-01-31T06:56:55;99111.53;;;0.00;99.81
64078;BME280;51039;49.696;10.808;2023-01-31T06:59:20;99109.50;;;0.04;99.80
64078;BME280;51039;49.696;10.808;2023-01-31T07:01:46;99120.41;;;0.09;99.90
64078;BME280;51039;49.696;10.808;2023-01-31T07:04:11;99113.28;;;0.11;99.67
64078;BME280;51039;49.696;10.808;2023-01-31T07:06:36;99117.09;;;0.07;98.96
64078;BME280;51039;49.696;10.808;2023-01-31T07:09:02;99121.47;;;0.06;99.10
64078;BME280;51039;49.696;10.808;2023-01-31T07:11:27;99124.28;;;0.03;98.91
64078;BME280;51039;49.696;10.808;2023-01-31T07:13:52;99125.59;;;0.09;98.60
64078;BME280;51039;49.696;10.808;2023-01-31T07:16:18;99122.53;;;0.15;98.21
64078;BME280;51039;49.696;10.808;2023-01-31T07:18:43;99116.13;;;0.19;98.14
64078;BME280;51039;49.696;10.808;2023-01-31T07:21:09;99117.91;;;0.30;98.53
64078;BME280;51039;49.696;10.808;2023-01-31T07:23:34;99123.72;;;0.45;97.83
64078;BME280;51039;49.696;10.808;2023-01-31T07:26:01;99122.66;;;0.58;97.53
64078;BME280;51039;49.696;10.808;2023-01-31T07:28:28;99128.56;;;0.72;97.72
64078;BME280;51039;49.696;10.808;2023-01-31T07:30:53;99129.06;;;0.98;96.48
64078;BME280;51039;49.696;10.808;2023-01-31T07:33:18;99125.69;;;1.18;95.52
64078;BME280;51039;49.696;10.808;2023-01-31T07:35:44;99128.91;;;1.22;95.08
64078;BME280;51039;49.696;10.808;2023-01-31T07:38:09;99129.13;;;1.19;95.27
64078;BME280;51039;49.696;10.808;2023-01-31T07:40:34;99126.84;;;1.37;95.01
64078;BME280;51039;49.696;10.808;2023-01-31T07:43:00;99122.97;;;1.52;94.36
64078;BME280;51039;49.696;10.808;2023-01-31T07:45:25;99121.19;;;1.53;93.75
64078;BME280;51039;49.696;10.808;2023-01-31T07:47:51;99130.91;;;1.51;93.57
64078;BME280;51039;49.696;10.808;2023-01-31T07:50:17;99128.19;;;1.52;93.70
64078;BME280;51039;49.696;10.808;2023-01-31T07:52:42;99136.78;;;1.43;93.83
64078;BME280;51039;49.696;10.808;2023-01-31T07:55:08;99132.06;;;1.37;94.50
64078;BME280;51039;49.696;10.808;2023-01-31T07:57:33;99126.31;;;1.43;94.76
64078;BME280;51039;49.696;10.808;2023-01-31T07:59:58;99131.63;;;1.53;94.15
64078;BME280;51039;49.696;10.808;2023-01-31T08:02:24;99123.16;;;1.61;93.74
64078;BME280;51039;49.696;10.808;2023-01-31T08:05:08;99123.91;;;1.72;92.89
64078;BME280;51039;49.696;10.808;2023-01-31T08:07:35;99124.63;;;1.74;92.73
64078;BME280;51039;49.696;10.808;2023-01-31T08:10:00;99129.03;;;1.74;92.50
64078;BME280;51039;49.696;10.808;2023-01-31T08:12:25;99138.25;;;1.78;91.87
64078;BME280;51039;49.696;10.808;2023-01-31T08:14:51;99144.63;;;1.85;91.61
64078;BME280;51039;49.696;10.808;2023-01-31T08:17:16;99142.47;;;2.21;90.58
64078;BME280;51039;49.696;10.808;2023-01-31T08:19:42;99145.22;;;2.41;89.35
64078;BME280;51039;49.696;10.808;2023-01-31T08:22:07;99143.63;;;2.59;88.37
64078;BME280;51039;49.696;10.808;2023-01-31T08:24:32;99156.53;;;2.51;89.08
64078;BME280;51039;49.696;10.808;2023-01-31T08:26:58;99157.88;;;2.45;88.79
64078;BME280;51039;49.696;10.808;2023-01-31T08:29:24;99154.44;;;2.45;88.54
64078;BME280;51039;49.696;10.808;2023-01-31T08:31:50;99159.47;;;2.36;89.10
64078;BME280;51039;49.696;10.808;2023-01-31T08:34:16;99158.41;;;2.39;88.83
64078;BME280;51039;49.696;10.808;2023-01-31T08:36:41;99163.06;;;2.35;89.27
64078;BME280;51039;49.696;10.808;2023-01-31T08:39:07;99166.69;;;2.23;88.82
64078;BME280;51039;49.696;10.808;2023-01-31T08:41:33;99154.28;;;2.15;88.33
64078;BME280;51039;49.696;10.808;2023-01-31T08:43:59;99158.34;;;1.99;89.32
64078;BME280;51039;49.696;10.808;2023-01-31T08:46:25;99142.25;;;2.03;89.60
64078;BME280;51039;49.696;10.808;2023-01-31T08:48:54;99135.75;;;1.98;89.40
64078;BME280;51039;49.696;10.808;2023-01-31T08:51:19;99135.06;;;1.95;89.43
64078;BME280;51039;49.696;10.808;2023-01-31T08:53:44;99146.97;;;1.88;89.66
64078;BME280;51039;49.696;10.808;2023-01-31T08:56:10;99145.50;;;1.95;89.69
64078;BME280;51039;49.696;10.808;2023-01-31T08:58:37;99146.91;;;2.00;89.12
64078;BME280;51039;49.696;10.808;2023-01-31T09:01:05;99146.22;;;1.98;88.66
64078;BME280;51039;49.696;10.808;2023-01-31T09:03:32;99142.72;;;2.08;89.36
64078;BME280;51039;49.696;10.808;2023-01-31T09:05:58;99140.22;;;2.07;88.95
64078;BME280;51039;49.696;10.808;2023-01-31T09:08:24;99140.97;;;2.19;88.07
64078;BME280;51039;49.696;10.808;2023-01-31T09:10:53;99141.28;;;2.25;88.26
64078;BME280;51039;49.696;10.808;2023-01-31T09:13:19;99136.56;;;2.19;88.41
64078;BME280;51039;49.696;10.808;2023-01-31T09:15:44;99133.38;;;2.15;88.34
64078;BME280;51039;49.696;10.808;2023-01-31T09:18:09;99132.13;;;2.10;88.30
64078;BME280;51039;49.696;10.808;2023-01-31T09:20:35;99132.25;;;2.08;88.46
64078;BME280;51039;49.696;10.808;2023-01-31T09:23:00;99128.88;;;2.18;88.43
64078;BME280;51039;49.696;10.808;2023-01-31T09:25:25;99137.94;;;2.23;88.55
64078;BME280;51039;49.696;10.808;2023-01-31T09:27:51;99140.72;;;2.22;87.78
64078;BME280;51039;49.696;10.808;2023-01-31T09:30:17;99133.88;;;2.30;88.35
64078;BME280;51039;49.696;10.808;2023-01-31T09:32:43;99136.06;;;2.25;87.28
64078;BME280;51039;49.696;10.808;2023-01-31T09:35:09;99138.84;;;2.33;87.44
64078;BME280;51039;49.696;10.808;2023-01-31T09:37:35;99154.56;;;2.43;87.08
64078;BME280;51039;49.696;10.808;2023-01-31T09:40:01;99149.94;;;2.57;87.24
64078;BME280;51039;49.696;10.808;2023-01-31T09:42:29;99152.59;;;2.66;86.79
64078;BME280;51039;49.696;10.808;2023-01-31T09:45:23;99158.88;;;2.54;87.20
64078;BME280;51039;49.696;10.808;2023-01-31T09:47:53;99147.50;;;2.65;87.41
64078;BME280;51039;49.696;10.808;2023-01-31T09:50:28;99147.63;;;2.63;87.34
64078;BME280;51039;49.696;10.808;2023-01-31T09:52:59;99146.81;;;2.72;86.64
64078;BME280;51039;49.696;10.808;2023-01-31T09:57:58;99140.94;;;2.40;87.08
64078;BME280;51039;49.696;10.808;2023-01-31T10:05:51;99119.75;;;2.93;85.46
64078;BME280;51039;49.696;10.808;2023-01-31T10:08:32;99126.91;;;2.91;85.23
64078;BME280;51039;49.696;10.808;2023-01-31T10:11:11;99128.84;;;2.89;85.43
64078;BME280;51039;49.696;10.808;2023-01-31T10:13:48;99127.50;;;3.04;84.29
64078;BME280;51039;49.696;10.808;2023-01-31T10:16:32;99129.41;;;3.02;84.09
64078;BME280;51039;49.696;10.808;2023-01-31T10:19:06;99116.44;;;2.91;84.47
64078;BME280;51039;49.696;10.808;2023-01-31T10:21:41;99110.78;;;2.86;84.21
64078;BME280;51039;49.696;10.808;2023-01-31T10:24:25;99111.47;;;2.88;84.23
64078;BME280;51039;49.696;10.808;2023-01-31T10:27:04;99113.38;;;2.76;84.92
64078;BME280;51039;49.696;10.808;2023-01-31T10:29:40;99105.41;;;2.78;84.51
64078;BME280;51039;49.696;10.808;2023-01-31T10:35:16;99098.94;;;2.91;84.82
64078;BME280;51039;49.696;10.808;2023-01-31T10:37:43;99084.75;;;2.94;83.78
64078;BME280;51039;49.696;10.808;2023-01-31T10:40:13;99086.44;;;2.95;83.39
64078;BME280;51039;49.696;10.808;2023-01-31T10:42:41;99089.44;;;3.00;83.50
64078;BME280;51039;49.696;10.808;2023-01-31T10:45:18;99082.56;;;3.19;83.18
64078;BME280;51039;49.696;10.808;2023-01-31T10:47:55;99089.19;;;3.13;81.96
64078;BME280;51039;49.696;10.808;2023-01-31T10:56:00;99074.84;;;3.27;82.13
64078;BME280;51039;49.696;10.808;2023-01-31T10:58:29;99069.75;;;3.54;81.26
64078;BME280;51039;49.696;10.808;2023-01-31T11:00:55;99064.00;;;3.88;80.26
64078;BME280;51039;49.696;10.808;2023-01-31T11:03:21;99062.75;;;4.30;78.48
64078;BME280;51039;49.696;10.808;2023-01-31T11:08:19;99040.97;;;4.93;75.37
64078;BME280;51039;49.696;10.808;2023-01-31T11:10:57;99042.53;;;4.86;75.85
64078;BME280;51039;49.696;10.808;2023-01-31T11:13:28;99040.00;;;4.94;75.51
64078;BME280;51039;49.696;10.808;2023-01-31T11:15:53;99033.75;;;4.59;75.14
64078;BME280;51039;49.696;10.808;2023-01-31T11:18:29;99028.28;;;4.52;75.00
64078;BME280;51039;49.696;10.808;2023-01-31T11:20:59;99027.16;;;4.27;76.21
64078;BME280;51039;49.696;10.808;2023-01-31T11:23:26;99025.09;;;4.21;76.32
64078;BME280;51039;49.696;10.808;2023-01-31T11:25:54;99017.28;;;4.11;76.91
64078;BME280;51039;49.696;10.808;2023-01-31T11:28:22;99018.63;;;3.88;78.18
64078;BME280;51039;49.696;10.808;2023-01-31T11:30:57;99002.84;;;3.70;79.26
64078;BME280;51039;49.696;10.808;2023-01-31T11:33:58;99007.84;;;3.53;79.60
64078;BME280;51039;49.696;10.808;2023-01-31T11:36:23;99009.13;;;3.40;80.28
64078;BME280;51039;49.696;10.808;2023-01-31T11:38:49;98999.88;;;3.36;80.93
64078;BME280;51039;49.696;10.808;2023-01-31T11:44:13;98994.28;;;3.01;83.27
64078;BME280;51039;49.696;10.808;2023-01-31T11:46:48;99001.31;;;3.01;83.31
64078;BME280;51039;49.696;10.808;2023-01-31T11:49:26;99000.88;;;2.95;83.28
64078;BME280;51039;49.696;10.808;2023-01-31T11:51:58;98998.84;;;2.80;83.97
64078;BME280;51039;49.696;10.808;2023-01-31T11:54:36;98992.63;;;2.71;84.43
64078;BME280;51039;49.696;10.808;2023-01-31T11:57:12;98977.78;;;2.71;84.83
64078;BME280;51039;49.696;10.808;2023-01-31T11:59:46;98984.06;;;2.59;85.45
64078;BME280;51039;49.696;10.808;2023-01-31T12:02:30;98966.19;;;2.54;85.60
64078;BME280;51039;49.696;10.808;2023-01-31T12:04:59;98975.41;;;2.49;85.88
64078;BME280;51039;49.696;10.808;2023-01-31T12:07:39;98964.25;;;2.37;86.69
64078;BME280;51039;49.696;10.808;2023-01-31T12:10:28;98977.31;;;2.27;87.40
64078;BME280;51039;49.696;10.808;2023-01-31T12:13:01;98976.63;;;2.25;87.42
64078;BME280;51039;49.696;10.808;2023-01-31T12:15:35;98980.03;;;2.26;87.88
64078;BME280;51039;49.696;10.808;2023-01-31T12:18:00;98963.13;;;2.30;88.01
64078;BME280;51039;49.696;10.808;2023-01-31T12:20:36;98957.91;;;2.30;88.28
64078;BME280;51039;49.696;10.808;2023-01-31T12:28:32;98974.81;;;2.26;88.32
64078;BME280;51039;49.696;10.808;2023-01-31T12:31:20;98958.31;;;2.25;87.48
64078;BME280;51039;49.696;10.808;2023-01-31T12:39:03;98945.63;;;2.21;87.95
64078;BME280;51039;49.696;10.808;2023-01-31T12:53:11;98986.50;;;2.22;88.28
64078;BME280;51039;49.696;10.808;2023-01-31T13:06:28;98948.78;;;2.14;89.20
64078;BME280;51039;49.696;10.808;2023-01-31T13:09:20;98942.75;;;2.14;89.09
64078;BME280;51039;49.696;10.808;2023-01-31T13:12:02;98935.47;;;2.18;88.99
64078;BME280;51039;49.696;10.808;2023-01-31T13:14:30;98912.34;;;2.23;88.58
64078;BME280;51039;49.696;10.808;2023-01-31T13:17:01;98892.53;;;2.30;88.59
64078;BME280;51039;49.696;10.808;2023-01-31T13:19:33;98892.00;;;2.26;87.88
64078;BME280;51039;49.696;10.808;2023-01-31T13:22:07;98877.81;;;2.29;88.22
64078;BME280;51039;49.696;10.808;2023-01-31T13:24:39;98874.13;;;2.22;88.04
64078;BME280;51039;49.696;10.808;2023-01-31T13:29:59;98847.69;;;2.34;88.06
64078;BME280;51039;49.696;10.808;2023-01-31T13:32:45;98858.44;;;2.31;88.39
64078;BME280;51039;49.696;10.808;2023-01-31T13:35:23;98860.06;;;2.32;88.62
64078;BME280;51039;49.696;10.808;2023-01-31T13:37:58;98844.50;;;2.31;88.49
64078;BME280;51039;49.696;10.808;2023-01-31T13:40:27;98846.59;;;2.27;88.76
64078;BME280;51039;49.696;10.808;2023-01-31T13:42:58;98843.00;;;2.28;89.04
64078;BME280;51039;49.696;10.808;2023-01-31T13:45:34;98855.53;;;2.25;89.54
64078;BME280;51039;49.696;10.808;2023-01-31T13:48:08;98867.66;;;2.26;89.16
64078;BME280;51039;49.696;10.808;2023-01-31T13:51:07;98843.44;;;2.33;89.00
64078;BME280;51039;49.696;10.808;2023-01-31T13:53:43;98837.91;;;2.36;88.61
64078;BME280;51039;49.696;10.808;2023-01-31T13:56:16;98827.44;;;2.46;88.06
64078;BME280;51039;49.696;10.808;2023-01-31T13:58:50;98833.09;;;2.51;88.11
64078;BME280;51039;49.696;10.808;2023-01-31T14:01:17;98839.13;;;2.62;87.55
64078;BME280;51039;49.696;10.808;2023-01-31T14:11:50;98825.00;;;2.45;88.34
64078;BME280;51039;49.696;10.808;2023-01-31T14:17:01;98822.06;;;2.48;87.95
64078;BME280;51039;49.696;10.808;2023-01-31T14:27:17;98827.28;;;2.58;88.16
64078;BME280;51039;49.696;10.808;2023-01-31T14:29:46;98822.06;;;2.58;88.40
64078;BME280;51039;49.696;10.808;2023-01-31T14:32:27;98836.66;;;2.60;88.01
64078;BME280;51039;49.696;10.808;2023-01-31T14:34:57;98824.81;;;2.66;87.97
64078;BME280;51039;49.696;10.808;2023-01-31T14:43:15;98806.25;;;2.59;88.29
64078;BME280;51039;49.696;10.808;2023-01-31T14:58:34;98777.63;;;2.48;88.72
64078;BME280;51039;49.696;10.808;2023-01-31T15:01:01;98782.59;;;2.51;88.28
64078;BME280;51039;49.696;10.808;2023-01-31T15:03:33;98783.00;;;2.56;88.34
64078;BME280;51039;49.696;10.808;2023-01-31T15:09:25;98798.69;;;2.56;87.95
64078;BME280;51039;49.696;10.808;2023-01-31T15:11:49;98801.16;;;2.58;87.95
64078;BME280;51039;49.696;10.808;2023-01-31T15:14:35;98792.22;;;2.60;88.01
64078;BME280;51039;49.696;10.808;2023-01-31T15:22:12;98791.91;;;2.63;87.63